Time;durP1;ratioP1;P1;durP2;ratioP2;P2;SDS_P1;SDS_P2;PMS_P1;PMS_P2;Temp;Humidity;BMP_temperature;BMP_pressure;BME280_temperature;BME280_humidity;BME280_pressure;Samples;Min_cycle;Max_cycle;Signal;HPM_P1;HPM_P2
2024/02/03 00:00:19;;;;;;;26.00;11.20;;;5.00;99.90;;;;;;5071776;28;20453;-83
2024/02/03 00:03:06;;;;;;;22.43;11.20;;;5.00;99.90;;;;;;5071392;28;20190;-84
2024/02/03 00:05:54;;;;;;;21.53;10.67;;;5.20;99.90;;;;;;5057304;28;20315;-83
2024/02/03 00:08:41;;;;;;;21.80;9.83;;;5.10;99.90;;;;;;5058434;28;20194;-83
2024/02/03 00:11:29;;;;;;;18.37;9.80;;;5.20;99.90;;;;;;5057476;28;20223;-84
2024/02/03 00:14:16;;;;;;;19.30;9.70;;;5.30;99.90;;;;;;5073076;28;20220;-84
2024/02/03 00:17:04;;;;;;;17.67;9.40;;;5.30;99.90;;;;;;5072318;28;20322;-83
2024/02/03 00:19:52;;;;;;;18.30;9.30;;;5.30;99.90;;;;;;5058132;28;20637;-84
2024/02/03 00:22:43;;;;;;;18.77;9.77;;;5.40;99.90;;;;;;5056884;28;20197;-83
2024/02/03 00:25:30;;;;;;;19.80;8.93;;;5.40;99.90;;;;;;5072886;28;20201;-84
2024/02/03 00:28:18;;;;;;;18.87;9.03;;;5.40;99.90;;;;;;5072100;28;20218;-83
2024/02/03 00:31:05;;;;;;;16.33;8.43;;;5.40;99.90;;;;;;5056775;28;20199;-83
2024/02/03 00:33:53;;;;;;;16.07;8.90;;;5.40;99.90;;;;;;5071328;28;20214;-83
2024/02/03 00:36:40;;;;;;;16.53;8.60;;;5.50;99.90;;;;;;5073153;28;20209;-84
2024/02/03 00:39:28;;;;;;;16.13;8.40;;;5.50;99.90;;;;;;5058069;28;20414;-84
2024/02/03 00:42:15;;;;;;;16.10;8.47;;;5.50;99.90;;;;;;5072193;28;20219;-83
2024/02/03 00:45:03;;;;;;;13.80;8.07;;;5.50;99.90;;;;;;5057312;28;20204;-82
2024/02/03 00:47:50;;;;;;;14.07;7.50;;;5.60;99.90;;;;;;5072095;28;20211;-83
2024/02/03 00:50:38;;;;;;;14.70;6.97;;;5.60;99.90;;;;;;5071386;28;20190;-83
2024/02/03 00:53:25;;;;;;;13.77;7.50;;;5.70;99.90;;;;;;5060449;28;20331;-83
2024/02/03 00:56:12;;;;;;;13.10;7.73;;;5.70;99.90;;;;;;5061224;28;20234;-84
2024/02/03 00:59:01;;;;;;;11.37;7.00;;;5.70;99.90;;;;;;5076089;28;20266;-83
2024/02/03 01:01:48;;;;;;;12.47;7.23;;;5.70;99.90;;;;;;5074437;28;20683;-83
2024/02/03 01:04:36;;;;;;;13.60;7.47;;;5.70;99.90;;;;;;5075078;28;20656;-83
2024/02/03 01:07:23;;;;;;;14.60;7.33;;;5.80;99.90;;;;;;5060078;28;20470;-83
2024/02/03 01:10:11;;;;;;;11.47;6.70;;;5.80;99.90;;;;;;5076339;28;20193;-83
2024/02/03 01:12:59;;;;;;;14.57;7.40;;;5.80;99.90;;;;;;5075306;28;20219;-82
2024/02/03 01:15:46;;;;;;;13.23;7.40;;;5.80;99.90;;;;;;5075684;28;20694;-83
2024/02/03 01:18:34;;;;;;;14.27;8.03;;;5.80;99.90;;;;;;5075599;28;20187;-82
2024/02/03 01:21:22;;;;;;;12.80;7.67;;;5.80;99.90;;;;;;5075660;28;20206;-83
2024/02/03 01:24:10;;;;;;;15.60;7.93;;;5.90;99.90;;;;;;5076723;28;20236;-83
2024/02/03 01:26:57;;;;;;;14.90;7.27;;;5.90;99.90;;;;;;5061724;28;20697;-83
2024/02/03 01:29:45;;;;;;;11.87;7.70;;;5.90;99.90;;;;;;5059678;28;20191;-83
2024/02/03 01:32:32;;;;;;;13.67;7.43;;;5.90;99.90;;;;;;5075828;28;20222;-83
2024/02/03 01:35:20;;;;;;;14.37;7.77;;;5.90;99.90;;;;;;5075492;28;20229;-83
2024/02/03 01:38:07;;;;;;;13.70;8.00;;;5.90;99.90;;;;;;5060460;28;20191;-83
2024/02/03 01:40:54;;;;;;;15.70;7.63;;;5.90;99.90;;;;;;5075457;28;20194;-83
2024/02/03 01:43:42;;;;;;;13.43;7.57;;;5.90;99.90;;;;;;5075867;28;20343;-83
2024/02/03 01:46:29;;;;;;;15.10;8.13;;;6.00;99.90;;;;;;5074347;28;20195;-82
2024/02/03 01:49:17;;;;;;;14.60;8.20;;;6.00;99.90;;;;;;5074506;28;20287;-84
2024/02/03 01:52:05;;;;;;;11.83;7.57;;;6.00;99.90;;;;;;5060311;28;20190;-83
2024/02/03 01:54:52;;;;;;;15.10;8.17;;;6.00;99.90;;;;;;5074556;28;20384;-81
2024/02/03 01:57:42;;;;;;;15.80;8.50;;;6.00;99.90;;;;;;5074585;28;20213;-83
2024/02/03 02:00:30;;;;;;;14.30;8.37;;;6.00;99.90;;;;;;5074595;28;20200;-83
2024/02/03 02:03:18;;;;;;;13.77;8.30;;;6.00;99.90;;;;;;5062493;28;20631;-84
2024/02/03 02:06:07;;;;;;;14.50;8.83;;;6.00;99.90;;;;;;5063385;28;20330;-85
2024/02/03 02:08:55;;;;;;;14.17;8.57;;;6.00;99.90;;;;;;5076782;28;20203;-84
2024/02/03 02:11:42;;;;;;;16.87;8.53;;;6.00;99.90;;;;;;5078376;28;20214;-84
2024/02/03 02:14:30;;;;;;;14.23;8.13;;;6.00;99.90;;;;;;5062783;28;20264;-83
2024/02/03 02:17:17;;;;;;;14.57;8.43;;;6.00;99.90;;;;;;5075620;28;20215;-84
2024/02/03 02:20:09;;;;;;;14.33;8.10;;;6.10;99.90;;;;;;5074886;28;20199;-84
2024/02/03 02:22:56;;;;;;;14.23;8.57;;;6.10;99.90;;;;;;5075307;28;20730;-84
2024/02/03 02:25:43;;;;;;;17.20;9.03;;;6.10;99.90;;;;;;5060527;28;20205;-84
2024/02/03 02:28:32;;;;;;;15.50;8.80;;;6.10;99.90;;;;;;5059750;28;20199;-84
2024/02/03 02:31:19;;;;;;;15.10;8.57;;;6.10;99.90;;;;;;5059650;28;20203;-84
2024/02/03 02:34:06;;;;;;;16.13;9.30;;;6.20;99.90;;;;;;5075586;28;20796;-84
2024/02/03 02:36:54;;;;;;;16.43;9.07;;;6.20;99.90;;;;;;5074586;28;20201;-83
2024/02/03 02:39:41;;;;;;;17.63;8.90;;;6.20;99.90;;;;;;5059624;28;20198;-83
2024/02/03 02:42:29;;;;;;;16.57;9.10;;;6.30;99.90;;;;;;5073102;28;20209;-83
2024/02/03 02:45:16;;;;;;;15.20;8.80;;;6.20;99.90;;;;;;5073695;28;20206;-83
2024/02/03 02:48:04;;;;;;;16.27;9.27;;;6.30;99.90;;;;;;5059591;28;20188;-83
2024/02/03 02:50:52;;;;;;;14.43;8.73;;;6.30;99.90;;;;;;5073843;28;20199;-83
2024/02/03 02:53:39;;;;;;;15.30;9.10;;;6.30;99.90;;;;;;5073463;28;20366;-83
2024/02/03 02:56:27;;;;;;;15.13;9.00;;;6.30;99.90;;;;;;5058958;28;20319;-82
2024/02/03 02:59:14;;;;;;;15.70;8.73;;;6.30;99.90;;;;;;5060514;28;20186;-84
2024/02/03 03:02:02;;;;;;;14.80;9.10;;;6.30;99.90;;;;;;5071981;28;20195;-83
2024/02/03 03:04:50;;;;;;;15.77;8.53;;;6.30;99.90;;;;;;5072576;28;20245;-83
2024/02/03 03:07:39;;;;;;;16.47;9.57;;;6.30;99.90;;;;;;5074062;28;20205;-83
2024/02/03 03:10:27;;;;;;;15.80;8.83;;;6.30;99.90;;;;;;5073238;28;20576;-83
2024/02/03 03:13:15;;;;;;;14.73;8.40;;;6.30;99.90;;;;;;5073245;28;20578;-83
2024/02/03 03:16:03;;;;;;;17.00;9.47;;;6.40;99.90;;;;;;5073166;28;20757;-83
2024/02/03 03:18:50;;;;;;;14.73;8.07;;;6.30;99.90;;;;;;5072136;28;20649;-82
2024/02/03 03:21:38;;;;;;;15.87;8.47;;;6.30;99.90;;;;;;5073537;28;20202;-84
2024/02/03 03:24:25;;;;;;;14.47;8.37;;;6.40;99.90;;;;;;5058697;28;20202;-83
2024/02/03 03:27:12;;;;;;;14.10;8.37;;;6.40;99.90;;;;;;5073517;28;20242;-84
2024/02/03 03:30:00;;;;;;;14.50;8.00;;;6.40;99.90;;;;;;5073400;28;20657;-83
2024/02/03 03:32:47;;;;;;;15.43;8.30;;;6.40;99.90;;;;;;5072244;28;20194;-84
2024/02/03 03:35:35;;;;;;;14.97;8.77;;;6.40;99.90;;;;;;5058474;28;20191;-84
2024/02/03 03:38:23;;;;;;;14.53;8.20;;;6.40;99.90;;;;;;5057798;28;20655;-84
2024/02/03 03:41:11;;;;;;;13.67;7.97;;;6.40;99.90;;;;;;5058112;28;20296;-84
2024/02/03 03:43:58;;;;;;;13.53;7.80;;;6.40;99.90;;;;;;5074264;28;20211;-83
2024/02/03 03:46:46;;;;;;;13.30;8.03;;;6.40;99.90;;;;;;5058832;28;20785;-84
2024/02/03 03:49:33;;;;;;;13.20;8.33;;;6.40;99.90;;;;;;5072479;28;20572;-83
2024/02/03 03:52:21;;;;;;;11.30;7.03;;;6.40;99.90;;;;;;5072455;28;20655;-83
2024/02/03 03:55:09;;;;;;;14.70;7.70;;;6.40;99.90;;;;;;5058168;28;20350;-83
2024/02/03 03:57:56;;;;;;;12.83;7.30;;;6.40;99.90;;;;;;5073567;28;20672;-83
2024/02/03 04:00:43;;;;;;;12.77;7.73;;;6.50;99.90;;;;;;5058823;28;20208;-84
2024/02/03 04:03:31;;;;;;;13.63;7.97;;;6.50;99.90;;;;;;5071763;28;20647;-82
2024/02/03 04:06:18;;;;;;;14.67;7.93;;;6.50;99.90;;;;;;5072799;28;20224;-83
2024/02/03 04:09:06;;;;;;;13.23;7.90;;;6.50;99.90;;;;;;5072372;28;20565;-84
2024/02/03 04:11:53;;;;;;;15.03;8.27;;;6.50;99.90;;;;;;5057824;28;20214;-84
2024/02/03 04:14:46;;;;;;;14.10;8.53;;;6.50;99.90;;;;;;5072886;28;20287;-84
2024/02/03 04:17:35;;;;;;;15.33;8.53;;;6.50;99.90;;;;;;5072216;28;20270;-84
2024/02/03 04:20:24;;;;;;;13.50;8.20;;;6.50;99.90;;;;;;5071765;28;20199;-83
2024/02/03 04:23:12;;;;;;;14.53;8.90;;;6.50;99.90;;;;;;5071162;28;20186;-84
2024/02/03 04:25:59;;;;;;;16.23;8.70;;;6.50;99.90;;;;;;5070793;28;20287;-84
2024/02/03 04:28:47;;;;;;;15.13;9.07;;;6.50;99.90;;;;;;5072387;28;20662;-84
2024/02/03 04:31:41;;;;;;;16.93;8.60;;;6.50;99.90;;;;;;5072288;28;20193;-83
2024/02/03 04:34:29;;;;;;;16.20;8.77;;;6.50;99.90;;;;;;5073656;28;20222;-84
2024/02/03 04:37:16;;;;;;;16.40;8.73;;;6.60;99.90;;;;;;5071706;28;20276;-84
2024/02/03 04:40:09;;;;;;;15.70;9.10;;;6.60;99.90;;;;;;5071912;28;20198;-84
2024/02/03 04:42:56;;;;;;;16.37;9.57;;;6.60;99.90;;;;;;5057800;28;20298;-83
2024/02/03 04:45:44;;;;;;;16.77;9.53;;;6.70;99.90;;;;;;5072357;28;20226;-84
2024/02/03 04:48:31;;;;;;;16.20;9.10;;;6.70;99.90;;;;;;5071985;28;20677;-83
2024/02/03 04:51:19;;;;;;;16.43;8.70;;;6.70;99.90;;;;;;5057616;28;20199;-83
2024/02/03 04:54:07;;;;;;;15.50;9.10;;;6.70;99.90;;;;;;5056546;28;20225;-84
2024/02/03 04:56:54;;;;;;;13.93;8.53;;;6.70;99.90;;;;;;5071945;28;20217;-84
2024/02/03 04:59:42;;;;;;;14.23;8.30;;;6.80;99.90;;;;;;5057041;28;20656;-83
2024/02/03 05:02:29;;;;;;;12.87;8.27;;;6.70;99.90;;;;;;5072312;28;20196;-84
2024/02/03 05:05:17;;;;;;;17.37;8.90;;;6.70;99.90;;;;;;5057565;28;20222;-84
2024/02/03 05:08:05;;;;;;;17.13;8.90;;;6.80;99.90;;;;;;5071114;28;20279;-83
2024/02/03 05:10:52;;;;;;;18.67;8.77;;;6.70;99.90;;;;;;5071500;28;20206;-82
2024/02/03 05:13:40;;;;;;;14.40;8.43;;;6.70;99.90;;;;;;5071306;28;20198;-83
2024/02/03 05:16:27;;;;;;;15.30;8.20;;;6.80;99.90;;;;;;5071131;28;20240;-83
2024/02/03 05:19:15;;;;;;;14.83;7.83;;;6.80;99.90;;;;;;5057152;28;20200;-83
2024/02/03 05:22:04;;;;;;;13.37;7.90;;;6.80;99.90;;;;;;5070946;28;20188;-83
2024/02/03 05:24:51;;;;;;;18.83;8.53;;;6.80;99.90;;;;;;5071039;28;20674;-83
2024/02/03 05:27:39;;;;;;;13.30;8.23;;;6.80;99.90;;;;;;5071927;28;20219;-83
2024/02/03 05:30:27;;;;;;;12.67;7.67;;;6.80;99.90;;;;;;5071799;28;20219;-82
2024/02/03 05:33:14;;;;;;;12.03;7.47;;;6.90;99.90;;;;;;5073150;28;20281;-83
2024/02/03 05:36:04;;;;;;;11.33;7.50;;;6.90;99.90;;;;;;5071196;28;20198;-81
2024/02/03 05:38:52;;;;;;;16.27;7.93;;;7.00;99.90;;;;;;5072569;28;20265;-83
2024/02/03 05:41:40;;;;;;;11.73;7.47;;;7.00;99.90;;;;;;5059901;28;20215;-82
2024/02/03 05:44:27;;;;;;;11.63;7.27;;;7.00;99.90;;;;;;5061059;28;20245;-83
2024/02/03 05:47:14;;;;;;;12.30;7.30;;;7.00;99.90;;;;;;5075113;28;20195;-83
2024/02/03 05:50:02;;;;;;;13.43;7.30;;;7.00;99.90;;;;;;5073437;28;20309;-81
2024/02/03 05:52:49;;;;;;;12.77;6.97;;;7.00;99.90;;;;;;5073745;28;20200;-82
2024/02/03 05:55:37;;;;;;;12.47;6.90;;;7.10;99.90;;;;;;5074923;28;20216;-82
2024/02/03 05:58:24;;;;;;;11.90;6.87;;;7.10;99.90;;;;;;5074319;28;20408;-82
2024/02/03 06:01:12;;;;;;;12.93;7.40;;;7.10;99.90;;;;;;5074934;28;20194;-82
2024/02/03 06:04:00;;;;;;;11.63;6.93;;;7.10;99.90;;;;;;5074389;28;20208;-82
2024/02/03 06:06:47;;;;;;;12.90;6.83;;;7.20;99.90;;;;;;5074333;28;20349;-82
2024/02/03 06:09:35;;;;;;;9.40;6.50;;;7.20;99.90;;;;;;5059351;28;20273;-82
2024/02/03 06:12:22;;;;;;;10.93;6.77;;;7.30;99.90;;;;;;5074769;28;20234;-83
2024/02/03 06:15:09;;;;;;;9.40;6.03;;;7.30;99.90;;;;;;5074104;28;20353;-81
2024/02/03 06:17:57;;;;;;;9.67;6.00;;;7.30;99.90;;;;;;5060196;28;20320;-82
2024/02/03 06:20:44;;;;;;;8.80;6.00;;;7.30;99.90;;;;;;5073606;28;20227;-82
2024/02/03 06:23:32;;;;;;;9.13;5.93;;;7.40;99.90;;;;;;5074647;28;20626;-82
2024/02/03 06:26:19;;;;;;;9.77;6.13;;;7.40;99.90;;;;;;5059832;28;20201;-82
2024/02/03 06:29:10;;;;;;;8.73;5.67;;;7.40;99.90;;;;;;5059940;28;20203;-82
2024/02/03 06:31:57;;;;;;;9.43;5.90;;;7.40;99.90;;;;;;5060546;28;20239;-82
2024/02/03 06:34:45;;;;;;;10.30;6.20;;;7.50;99.90;;;;;;5074972;28;20334;-81
2024/02/03 06:37:32;;;;;;;9.83;5.80;;;7.50;99.90;;;;;;5073679;28;20200;-82
2024/02/03 06:40:21;;;;;;;9.03;5.93;;;7.50;99.90;;;;;;5059947;28;20206;-82
2024/02/03 06:43:09;;;;;;;9.00;5.47;;;7.60;99.90;;;;;;5060061;28;20219;-82
2024/02/03 06:45:56;;;;;;;8.67;5.50;;;7.60;99.90;;;;;;5074901;28;20197;-81
2024/02/03 06:48:44;;;;;;;8.47;5.70;;;7.60;99.90;;;;;;5073709;28;20205;-81
2024/02/03 06:51:32;;;;;;;7.30;5.37;;;7.60;99.90;;;;;;5058946;28;20201;-81
2024/02/03 06:54:19;;;;;;;8.90;5.77;;;7.50;99.90;;;;;;5072933;28;20215;-82
2024/02/03 06:57:06;;;;;;;10.40;5.97;;;7.60;99.90;;;;;;5074406;28;20577;-81
2024/02/03 06:59:54;;;;;;;8.30;5.47;;;7.60;99.90;;;;;;5073098;28;20187;-83
2024/02/03 07:02:41;;;;;;;8.73;5.60;;;7.70;99.90;;;;;;5073692;28;20222;-81
2024/02/03 07:05:29;;;;;;;9.43;5.63;;;7.70;99.90;;;;;;5059390;28;20693;-83
2024/02/03 07:08:16;;;;;;;9.87;5.63;;;7.70;99.90;;;;;;5058882;28;20325;-82
2024/02/03 07:11:05;;;;;;;8.47;5.53;;;7.70;99.90;;;;;;5059615;28;20193;-82
2024/02/03 07:13:53;;;;;;;9.73;6.23;;;7.70;99.90;;;;;;5058355;28;20201;-83
2024/02/03 07:16:41;;;;;;;10.97;6.53;;;7.70;99.90;;;;;;5058742;28;20203;-85
2024/02/03 07:19:29;;;;;;;10.30;6.77;;;7.70;99.90;;;;;;5058565;28;20357;-82
2024/02/03 07:22:17;;;;;;;10.73;6.77;;;7.70;99.90;;;;;;5074000;28;20255;-83
2024/02/03 07:25:05;;;;;;;10.97;6.97;;;7.70;99.90;;;;;;5072452;28;20221;-84
2024/02/03 07:27:52;;;;;;;14.20;7.63;;;7.70;99.90;;;;;;5073912;28;20210;-81
2024/02/03 07:30:39;;;;;;;11.97;7.37;;;7.70;99.90;;;;;;5073311;28;20199;-83
2024/02/03 07:33:27;;;;;;;13.77;8.00;;;7.70;99.90;;;;;;5058558;28;20224;-85
2024/02/03 07:36:14;;;;;;;13.13;8.17;;;7.60;99.90;;;;;;5073072;28;20259;-83
2024/02/03 07:39:05;;;;;;;14.40;8.23;;;7.60;99.90;;;;;;5073800;28;20202;-84
2024/02/03 07:41:52;;;;;;;13.50;8.37;;;7.60;99.90;;;;;;5057854;28;20253;-87
2024/02/03 07:44:39;;;;;;;15.43;9.37;;;7.60;99.90;;;;;;5072744;28;20655;-84
2024/02/03 07:47:27;;;;;;;14.70;9.03;;;7.60;99.90;;;;;;5058119;28;20644;-83
2024/02/03 07:50:14;;;;;;;18.88;12.15;;;7.60;99.90;;;;;;5070903;28;20511;-83
2024/02/03 07:53:01;;;;;;;18.60;10.53;;;7.60;99.90;;;;;;5071690;28;20230;-84
2024/02/03 07:55:48;;;;;;;19.73;10.93;;;7.60;99.90;;;;;;5071269;28;20325;-82
2024/02/03 07:58:36;;;;;;;18.23;10.20;;;7.60;99.90;;;;;;5058123;28;20657;-82
2024/02/03 08:01:23;;;;;;;16.87;9.83;;;7.60;99.90;;;;;;5070558;28;20187;-82
2024/02/03 08:04:11;;;;;;;16.33;9.70;;;7.60;99.90;;;;;;5072127;28;20218;-82
2024/02/03 08:06:58;;;;;;;17.37;9.83;;;7.60;99.90;;;;;;5072850;28;20793;-82
2024/02/03 08:09:49;;;;;;;17.30;9.83;;;7.60;99.90;;;;;;5072298;28;20200;-82
2024/02/03 08:12:37;;;;;;;21.70;9.93;;;7.60;99.90;;;;;;5072016;28;20236;-80
2024/02/03 08:15:25;;;;;;;17.73;10.17;;;7.70;99.90;;;;;;5071968;28;20263;-83
2024/02/03 08:18:12;;;;;;;16.93;9.47;;;7.60;99.90;;;;;;5071928;28;20277;-81
2024/02/03 08:21:00;;;;;;;19.10;9.07;;;7.70;99.90;;;;;;5073073;28;20345;-82
2024/02/03 08:23:48;;;;;;;18.27;10.43;;;7.70;99.90;;;;;;5057252;28;20274;-82
2024/02/03 08:26:35;;;;;;;17.87;10.20;;;7.70;99.90;;;;;;5071465;28;20229;-81
2024/02/03 08:29:26;;;;;;;17.53;10.10;;;7.80;99.90;;;;;;5058025;28;20192;-83
2024/02/03 08:32:13;;;;;;;17.10;10.13;;;7.70;99.90;;;;;;5057437;28;20214;-82
2024/02/03 08:35:01;;;;;;;16.67;9.87;;;7.80;99.90;;;;;;5071595;28;20680;-82
2024/02/03 08:37:51;;;;;;;18.77;10.73;;;7.80;99.90;;;;;;5071671;28;20192;-83
2024/02/03 08:40:38;;;;;;;15.20;9.37;;;7.90;99.90;;;;;;5073324;28;20270;-83
2024/02/03 08:43:26;;;;;;;16.97;9.30;;;7.90;99.90;;;;;;5072039;28;20331;-83
2024/02/03 08:46:13;;;;;;;17.97;9.87;;;7.90;99.90;;;;;;5058056;28;20260;-81
2024/02/03 08:49:01;;;;;;;18.67;11.10;;;7.90;99.90;;;;;;5057592;28;20277;-81
2024/02/03 08:51:49;;;;;;;19.67;10.30;;;8.00;99.90;;;;;;5056959;28;20202;-80
2024/02/03 08:54:37;;;;;;;16.80;10.07;;;8.00;99.90;;;;;;5071444;28;20219;-83
2024/02/03 08:57:25;;;;;;;16.03;10.60;;;8.00;99.90;;;;;;5073239;28;20211;-83
2024/02/03 09:00:13;;;;;;;18.87;10.13;;;8.00;99.90;;;;;;5071435;28;20231;-83
2024/02/03 09:03:00;;;;;;;16.40;9.83;;;8.10;99.90;;;;;;5057091;28;20969;-83
2024/02/03 09:05:48;;;;;;;16.87;9.80;;;8.10;99.90;;;;;;5057627;28;20710;-83
2024/02/03 09:08:35;;;;;;;16.90;10.17;;;8.10;99.90;;;;;;5070823;28;20230;-83
2024/02/03 09:11:22;;;;;;;15.63;9.63;;;8.10;99.90;;;;;;5056561;28;20264;-83
2024/02/03 09:14:10;;;;;;;16.17;9.43;;;8.20;99.90;;;;;;5075278;28;20200;-84
2024/02/03 09:16:57;;;;;;;15.80;9.63;;;8.20;99.90;;;;;;5075182;28;20202;-84
2024/02/03 09:19:46;;;;;;;15.83;9.77;;;8.20;99.90;;;;;;5076280;28;20203;-83
2024/02/03 09:22:33;;;;;;;15.93;9.57;;;8.20;99.90;;;;;;5075716;28;20196;-84
2024/02/03 09:25:21;;;;;;;15.50;9.57;;;8.20;99.90;;;;;;5075760;28;20220;-84
2024/02/03 09:28:08;;;;;;;17.47;9.60;;;8.30;99.90;;;;;;5074998;28;20316;-85
2024/02/03 09:30:55;;;;;;;15.47;9.87;;;8.30;99.90;;;;;;5059530;28;20340;-85
2024/02/03 09:33:43;;;;;;;13.17;8.80;;;8.40;99.90;;;;;;5074913;28;20200;-85
2024/02/03 09:36:31;;;;;;;13.93;8.57;;;8.30;99.90;;;;;;5075471;28;20600;-85
2024/02/03 09:39:19;;;;;;;14.77;8.77;;;8.30;99.90;;;;;;5075838;28;20187;-84
2024/02/03 09:42:07;;;;;;;12.57;8.10;;;8.30;99.90;;;;;;5074375;28;20664;-84
2024/02/03 09:44:55;;;;;;;14.27;8.53;;;8.30;99.90;;;;;;5076003;28;20275;-84
2024/02/03 09:47:42;;;;;;;14.37;8.17;;;8.40;99.90;;;;;;5074780;28;20243;-84
2024/02/03 09:50:29;;;;;;;13.57;8.73;;;8.40;99.90;;;;;;5060174;28;20617;-84
2024/02/03 09:53:16;;;;;;;14.57;8.00;;;8.40;99.90;;;;;;5075083;28;20221;-84
2024/02/03 09:56:04;;;;;;;13.87;8.60;;;8.60;99.90;;;;;;5074935;28;20673;-84
2024/02/03 09:58:52;;;;;;;12.73;8.33;;;8.60;99.90;;;;;;5059641;28;20245;-85
2024/02/03 10:01:46;;;;;;;15.87;9.07;;;8.60;99.90;;;;;;5075546;28;20247;-86
2024/02/03 10:04:38;;;;;;;13.93;9.13;;;8.70;99.90;;;;;;5074227;28;20675;-84
2024/02/03 10:07:26;;;;;;;13.27;8.27;;;8.70;99.90;;;;;;5075476;28;20192;-84
2024/02/03 10:10:13;;;;;;;15.97;9.17;;;8.70;99.90;;;;;;5058925;28;20202;-84
2024/02/03 10:13:08;;;;;;;13.20;8.70;;;8.60;99.90;;;;;;5074219;28;20223;-85
2024/02/03 10:16:03;;;;;;;13.70;8.77;;;8.70;99.90;;;;;;5074121;28;20215;-84
2024/02/03 10:18:50;;;;;;;13.70;9.07;;;8.70;99.90;;;;;;5074595;28;20215;-84
2024/02/03 10:21:38;;;;;;;12.37;8.10;;;8.80;99.90;;;;;;5059708;28;20194;-84
2024/02/03 10:24:27;;;;;;;16.37;8.97;;;8.80;99.90;;;;;;5074462;28;20233;-84
2024/02/03 10:27:15;;;;;;;12.97;8.43;;;8.80;99.90;;;;;;5059524;28;20251;-85
2024/02/03 10:30:02;;;;;;;12.90;8.63;;;8.80;99.90;;;;;;5074478;28;20191;-85
2024/02/03 10:32:50;;;;;;;15.23;8.53;;;8.80;99.90;;;;;;5060269;28;20444;-83
2024/02/03 10:35:38;;;;;;;12.87;8.60;;;8.80;99.90;;;;;;5073201;28;20323;-83
2024/02/03 10:38:25;;;;;;;13.00;8.20;;;8.80;99.90;;;;;;5073545;28;20219;-84
2024/02/03 10:41:15;;;;;;;14.87;8.53;;;8.80;99.90;;;;;;5073550;28;20249;-84
2024/02/03 10:44:06;;;;;;;13.87;8.33;;;8.90;99.90;;;;;;5059921;28;20237;-83
2024/02/03 10:46:59;;;;;;;12.97;7.83;;;9.00;99.90;;;;;;5072968;28;20288;-83
2024/02/03 10:49:48;;;;;;;13.53;7.90;;;9.00;99.90;;;;;;5059102;28;20212;-83
2024/02/03 10:52:37;;;;;;;12.77;7.97;;;9.00;99.90;;;;;;5073568;28;20206;-83
2024/02/03 10:55:25;;;;;;;12.03;7.47;;;9.10;99.90;;;;;;5073794;28;20734;-83
2024/02/03 10:58:13;;;;;;;13.60;7.70;;;9.10;99.90;;;;;;5074676;28;20347;-83
2024/02/03 11:01:17;;;;;;;10.90;7.40;;;9.20;99.90;;;;;;5073330;28;20197;-82
2024/02/03 11:04:06;;;;;;;11.27;7.07;;;9.30;99.90;;;;;;5058537;28;20210;-82
2024/02/03 11:06:58;;;;;;;12.53;6.97;;;9.30;99.90;;;;;;5059101;28;20689;-82
2024/02/03 11:09:52;;;;;;;12.47;7.30;;;9.30;99.90;;;;;;5059496;28;20201;-84
2024/02/03 11:12:40;;;;;;;12.27;7.20;;;9.40;99.90;;;;;;5074207;28;20315;-84
2024/02/03 11:15:27;;;;;;;10.27;6.60;;;9.40;99.90;;;;;;5058159;28;20212;-84
2024/02/03 11:18:15;;;;;;;10.37;6.33;;;9.40;99.90;;;;;;5073044;28;20198;-85
2024/02/03 11:21:09;;;;;;;13.37;6.93;;;9.40;99.90;;;;;;5073386;28;20200;-85
2024/02/03 11:23:56;;;;;;;7.60;5.43;;;9.50;99.90;;;;;;5057843;28;20267;-84
2024/02/03 11:26:57;;;;;;;9.47;5.37;;;9.60;99.90;;;;;;5072785;28;20220;-85
2024/02/03 11:29:44;;;;;;;8.17;5.30;;;9.60;99.90;;;;;;5072788;28;20284;-85
2024/02/03 11:32:32;;;;;;;7.50;5.17;;;9.70;99.90;;;;;;5072568;28;20202;-86
2024/02/03 11:35:21;;;;;;;8.53;5.37;;;9.70;99.90;;;;;;5058463;28;20673;-85
2024/02/03 11:38:09;;;;;;;9.00;4.90;;;9.80;99.90;;;;;;5072747;28;20197;-85
2024/02/03 11:40:57;;;;;;;6.47;4.60;;;9.80;99.90;;;;;;5072310;28;20570;-85
2024/02/03 11:43:49;;;;;;;8.73;4.57;;;9.90;99.90;;;;;;5074063;28;20199;-85
2024/02/03 11:46:36;;;;;;;6.23;4.30;;;9.90;99.90;;;;;;5072588;28;20228;-85
2024/02/03 11:49:23;;;;;;;7.03;4.93;;;10.00;99.90;;;;;;5072886;28;20198;-83
2024/02/03 11:52:11;;;;;;;7.33;4.47;;;10.00;99.90;;;;;;5058131;28;20217;-84
2024/02/03 11:54:58;;;;;;;5.37;3.90;;;10.10;99.90;;;;;;5057958;28;20199;-83
2024/02/03 11:57:46;;;;;;;10.57;4.50;;;10.20;99.90;;;;;;5057920;28;20645;-83
2024/02/03 12:00:33;;;;;;;5.60;3.67;;;10.50;99.90;;;;;;5073441;28;20287;-82
2024/02/03 12:03:20;;;;;;;6.00;3.60;;;10.90;99.90;;;;;;5057836;28;20197;-86
2024/02/03 12:06:08;;;;;;;5.70;4.10;;;11.20;99.90;;;;;;5071870;28;20479;-83
2024/02/03 12:08:55;;;;;;;6.00;4.33;;;11.30;99.90;;;;;;5071474;28;20206;-83
2024/02/03 12:11:43;;;;;;;4.80;3.63;;;11.40;99.90;;;;;;5072922;28;20261;-82
2024/02/03 12:14:30;;;;;;;5.40;3.90;;;11.50;99.90;;;;;;5071472;28;20190;-82
2024/02/03 12:17:19;;;;;;;6.20;3.83;;;11.30;99.90;;;;;;5072915;28;20263;-82
2024/02/03 12:20:24;;;;;;;5.67;3.90;;;11.00;99.90;;;;;;5072671;28;20190;-83
2024/02/03 12:23:12;;;;;;;5.77;3.63;;;10.80;99.90;;;;;;5072730;28;20197;-83
2024/02/03 12:26:06;;;;;;;6.10;3.53;;;10.70;99.90;;;;;;5073523;28;20336;-84
2024/02/03 12:28:53;;;;;;;7.87;3.90;;;10.60;99.90;;;;;;5071681;28;20553;-83
2024/02/03 12:31:41;;;;;;;4.77;3.43;;;10.60;99.90;;;;;;5057413;28;20193;-84
2024/02/03 12:34:28;;;;;;;5.63;3.57;;;10.60;99.90;;;;;;5072395;28;20216;-85
2024/02/03 12:37:17;;;;;;;5.83;3.40;;;10.50;99.90;;;;;;5071942;28;20259;-84
2024/02/03 12:40:05;;;;;;;5.47;3.33;;;10.50;99.90;;;;;;5072305;28;20623;-85
2024/02/03 12:42:52;;;;;;;4.63;3.43;;;10.40;99.90;;;;;;5072555;28;20726;-84
2024/02/03 12:45:40;;;;;;;4.37;3.17;;;10.40;99.90;;;;;;5072939;28;20193;-84
2024/02/03 12:48:27;;;;;;;4.73;3.30;;;10.30;99.90;;;;;;5056943;28;20258;-84
2024/02/03 12:51:16;;;;;;;5.30;3.53;;;10.40;99.90;;;;;;5056498;28;20190;-85
2024/02/03 12:54:04;;;;;;;4.90;3.40;;;10.30;99.90;;;;;;5071774;28;20198;-84
2024/02/03 12:56:51;;;;;;;5.03;3.20;;;10.40;99.90;;;;;;5070597;28;20349;-85
2024/02/03 12:59:39;;;;;;;5.50;3.03;;;10.40;99.90;;;;;;5072359;28;20212;-84
2024/02/03 13:02:28;;;;;;;3.83;2.80;;;10.40;99.90;;;;;;5072163;28;20290;-84
2024/02/03 13:05:16;;;;;;;4.57;3.17;;;10.40;99.90;;;;;;5071827;28;20365;-85
2024/02/03 13:08:04;;;;;;;5.03;3.33;;;10.40;99.90;;;;;;5057326;28;20581;-85
2024/02/03 13:10:51;;;;;;;4.20;3.20;;;10.40;99.90;;;;;;5057718;28;20309;-82
2024/02/03 13:13:38;;;;;;;4.40;3.13;;;10.50;99.90;;;;;;5071608;28;20192;-82
2024/02/03 13:16:26;;;;;;;7.90;3.60;;;10.50;99.90;;;;;;5071830;28;20293;-82
2024/02/03 13:19:14;;;;;;;4.43;3.30;;;10.60;99.90;;;;;;5071760;28;20194;-82
2024/02/03 13:22:02;;;;;;;6.33;3.70;;;10.60;99.90;;;;;;5056870;28;20201;-82
2024/02/03 13:24:49;;;;;;;5.00;3.50;;;10.50;99.90;;;;;;5057513;28;20198;-83
2024/02/03 13:27:37;;;;;;;4.80;3.23;;;10.60;99.90;;;;;;5056884;28;20358;-84
2024/02/03 13:30:24;;;;;;;5.90;3.80;;;10.60;99.90;;;;;;5057574;28;20568;-84
2024/02/03 13:33:14;;;;;;;5.77;3.20;;;10.60;99.90;;;;;;5072001;28;20296;-84
2024/02/03 13:36:02;;;;;;;4.43;3.47;;;10.60;99.90;;;;;;5072303;28;20221;-82
2024/02/03 13:38:49;;;;;;;4.30;3.30;;;10.70;99.90;;;;;;5071329;28;20259;-83
2024/02/03 13:41:37;;;;;;;5.60;3.33;;;10.60;99.90;;;;;;5072224;28;20213;-83
2024/02/03 13:44:24;;;;;;;4.73;3.20;;;10.60;99.90;;;;;;5070437;28;20200;-83
2024/02/03 13:47:12;;;;;;;4.53;3.50;;;10.50;99.90;;;;;;5056534;28;20251;-83
2024/02/03 13:49:59;;;;;;;6.50;3.80;;;10.40;99.90;;;;;;5071491;28;20193;-84
2024/02/03 13:52:47;;;;;;;6.47;3.50;;;10.40;99.90;;;;;;5071535;28;20278;-83
2024/02/03 13:55:34;;;;;;;5.47;3.40;;;10.40;99.90;;;;;;5057435;28;20200;-85
2024/02/03 13:58:22;;;;;;;5.87;3.00;;;10.40;99.90;;;;;;5071479;28;20732;-85
2024/02/03 14:01:09;;;;;;;4.70;3.07;;;10.40;99.90;;;;;;5061318;28;20288;-84
2024/02/03 14:03:57;;;;;;;4.13;2.80;;;10.40;99.90;;;;;;5074946;28;20195;-83
2024/02/03 14:06:44;;;;;;;5.53;3.20;;;10.40;99.90;;;;;;5075271;28;20694;-82
2024/02/03 14:09:31;;;;;;;4.17;3.00;;;10.40;99.90;;;;;;5075144;28;20564;-84
2024/02/03 14:12:19;;;;;;;5.90;3.03;;;10.40;99.90;;;;;;5059983;28;20216;-83
2024/02/03 14:15:06;;;;;;;4.53;3.00;;;10.30;99.90;;;;;;5074747;28;20197;-83
2024/02/03 14:17:53;;;;;;;4.30;2.87;;;10.30;99.90;;;;;;5073808;28;20304;-83
2024/02/03 14:20:41;;;;;;;4.93;2.90;;;10.30;99.90;;;;;;5074900;28;20540;-84
2024/02/03 14:23:29;;;;;;;4.43;3.10;;;10.30;99.90;;;;;;5074243;28;20197;-84
2024/02/03 14:26:16;;;;;;;4.30;2.87;;;10.30;99.90;;;;;;5059413;28;20703;-82
2024/02/03 14:29:04;;;;;;;12.10;3.37;;;10.20;99.90;;;;;;5060200;28;20195;-82
2024/02/03 14:31:51;;;;;;;4.97;2.87;;;10.20;99.90;;;;;;5047209;28;20562;-83
2024/02/03 14:34:39;;;;;;;5.07;2.90;;;10.20;99.90;;;;;;5074265;28;20312;-82